sensor_id;sensor_type;location;lat;lon;timestamp;P1;durP1;ratioP1;P2;durP2;ratioP2
16731;SDS011;8484;50.904;9.192;2023-07-30T00:01:57;3.90;;;1.00;;
16731;SDS011;8484;50.904;9.192;2023-07-30T00:04:24;1.07;;;0.97;;
16731;SDS011;8484;50.904;9.192;2023-07-30T00:06:52;2.93;;;1.10;;
16731;SDS011;8484;50.904;9.192;2023-07-30T00:09:20;1.27;;;1.10;;
16731;SDS011;8484;50.904;9.192;2023-07-30T00:11:47;1.40;;;1.30;;
16731;SDS011;8484;50.904;9.192;2023-07-30T00:14:14;1.33;;;1.23;;
16731;SDS011;8484;50.904;9.192;2023-07-30T00:16:41;1.97;;;1.20;;
16731;SDS011;8484;50.904;9.192;2023-07-30T00:19:08;1.87;;;1.23;;
16731;SDS011;8484;50.904;9.192;2023-07-30T00:21:35;1.33;;;1.20;;
16731;SDS011;8484;50.904;9.192;2023-07-30T00:24:04;3.63;;;1.30;;
16731;SDS011;8484;50.904;9.192;2023-07-30T00:26:31;3.47;;;1.17;;
16731;SDS011;8484;50.904;9.192;2023-07-30T00:28:58;1.10;;;1.10;;
16731;SDS011;8484;50.904;9.192;2023-07-30T00:31:25;1.90;;;1.30;;
16731;SDS011;8484;50.904;9.192;2023-07-30T00:33:52;2.77;;;1.40;;
16731;SDS011;8484;50.904;9.192;2023-07-30T00:36:19;1.20;;;1.10;;
16731;SDS011;8484;50.904;9.192;2023-07-30T00:38:45;1.20;;;1.10;;
16731;SDS011;8484;50.904;9.192;2023-07-30T00:41:14;2.13;;;1.20;;
16731;SDS011;8484;50.904;9.192;2023-07-30T00:43:41;4.43;;;1.20;;
16731;SDS011;8484;50.904;9.192;2023-07-30T00:46:08;1.40;;;1.30;;
16731;SDS011;8484;50.904;9.192;2023-07-30T00:48:35;2.63;;;1.40;;
16731;SDS011;8484;50.904;9.192;2023-07-30T00:51:02;2.07;;;1.33;;
16731;SDS011;8484;50.904;9.192;2023-07-30T00:53:29;1.33;;;1.23;;
16731;SDS011;8484;50.904;9.192;2023-07-30T00:55:56;3.33;;;1.50;;
16731;SDS011;8484;50.904;9.192;2023-07-30T00:58:25;1.83;;;1.57;;
16731;SDS011;8484;50.904;9.192;2023-07-30T01:00:53;3.30;;;1.53;;
16731;SDS011;8484;50.904;9.192;2023-07-30T01:03:21;4.27;;;1.50;;
16731;SDS011;8484;50.904;9.192;2023-07-30T01:05:48;1.50;;;1.40;;
16731;SDS011;8484;50.904;9.192;2023-07-30T01:08:16;1.40;;;1.30;;
16731;SDS011;8484;50.904;9.192;2023-07-30T01:10:42;2.07;;;1.63;;
16731;SDS011;8484;50.904;9.192;2023-07-30T01:13:10;2.37;;;1.40;;
16731;SDS011;8484;50.904;9.192;2023-07-30T01:15:41;4.30;;;1.40;;
16731;SDS011;8484;50.904;9.192;2023-07-30T01:18:09;1.50;;;1.40;;
16731;SDS011;8484;50.904;9.192;2023-07-30T01:20:36;3.13;;;1.50;;
16731;SDS011;8484;50.904;9.192;2023-07-30T01:23:04;4.30;;;1.50;;
16731;SDS011;8484;50.904;9.192;2023-07-30T01:25:33;1.53;;;1.40;;
16731;SDS011;8484;50.904;9.192;2023-07-30T01:28:03;1.60;;;1.40;;
16731;SDS011;8484;50.904;9.192;2023-07-30T01:30:32;1.60;;;1.50;;
16731;SDS011;8484;50.904;9.192;2023-07-30T01:33:03;2.07;;;1.40;;
16731;SDS011;8484;50.904;9.192;2023-07-30T01:35:32;1.90;;;1.70;;
16731;SDS011;8484;50.904;9.192;2023-07-30T01:37:59;2.87;;;1.50;;
16731;SDS011;8484;50.904;9.192;2023-07-30T01:40:31;3.00;;;1.70;;
16731;SDS011;8484;50.904;9.192;2023-07-30T01:42:58;3.00;;;1.60;;
16731;SDS011;8484;50.904;9.192;2023-07-30T01:45:25;3.50;;;1.80;;
16731;SDS011;8484;50.904;9.192;2023-07-30T01:47:53;2.53;;;1.50;;
16731;SDS011;8484;50.904;9.192;2023-07-30T01:50:20;2.77;;;1.70;;
16731;SDS011;8484;50.904;9.192;2023-07-30T01:52:47;1.70;;;1.60;;
16731;SDS011;8484;50.904;9.192;2023-07-30T01:55:14;4.03;;;1.80;;
16731;SDS011;8484;50.904;9.192;2023-07-30T01:57:42;2.47;;;1.70;;
16731;SDS011;8484;50.904;9.192;2023-07-30T02:00:09;3.37;;;2.00;;
16731;SDS011;8484;50.904;9.192;2023-07-30T02:02:37;2.07;;;1.90;;
16731;SDS011;8484;50.904;9.192;2023-07-30T02:05:04;3.13;;;1.73;;
16731;SDS011;8484;50.904;9.192;2023-07-30T02:07:31;3.07;;;2.30;;
16731;SDS011;8484;50.904;9.192;2023-07-30T02:09:58;2.77;;;1.90;;
16731;SDS011;8484;50.904;9.192;2023-07-30T02:12:25;3.23;;;1.90;;
16731;SDS011;8484;50.904;9.192;2023-07-30T02:15:04;1.90;;;1.80;;
16731;SDS011;8484;50.904;9.192;2023-07-30T02:17:32;2.33;;;2.10;;
16731;SDS011;8484;50.904;9.192;2023-07-30T02:19:58;2.23;;;1.87;;
16731;SDS011;8484;50.904;9.192;2023-07-30T02:22:25;1.93;;;1.77;;
16731;SDS011;8484;50.904;9.192;2023-07-30T02:24:52;1.87;;;1.70;;
16731;SDS011;8484;50.904;9.192;2023-07-30T02:27:22;2.13;;;1.80;;
16731;SDS011;8484;50.904;9.192;2023-07-30T02:29:49;2.40;;;1.67;;
16731;SDS011;8484;50.904;9.192;2023-07-30T02:32:17;2.50;;;1.87;;
16731;SDS011;8484;50.904;9.192;2023-07-30T02:34:44;2.23;;;1.93;;
16731;SDS011;8484;50.904;9.192;2023-07-30T02:37:11;2.07;;;1.90;;
16731;SDS011;8484;50.904;9.192;2023-07-30T02:39:38;3.60;;;1.80;;
16731;SDS011;8484;50.904;9.192;2023-07-30T02:42:06;2.00;;;1.70;;
16731;SDS011;8484;50.904;9.192;2023-07-30T02:44:33;4.37;;;1.80;;
16731;SDS011;8484;50.904;9.192;2023-07-30T02:47:00;2.43;;;1.77;;
16731;SDS011;8484;50.904;9.192;2023-07-30T02:49:28;2.40;;;2.00;;
16731;SDS011;8484;50.904;9.192;2023-07-30T02:51:55;1.90;;;1.80;;
16731;SDS011;8484;50.904;9.192;2023-07-30T02:54:22;2.87;;;1.77;;
16731;SDS011;8484;50.904;9.192;2023-07-30T02:56:49;2.17;;;1.70;;
16731;SDS011;8484;50.904;9.192;2023-07-30T02:59:16;1.70;;;1.37;;
16731;SDS011;8484;50.904;9.192;2023-07-30T03:01:43;1.70;;;1.60;;
16731;SDS011;8484;50.904;9.192;2023-07-30T03:04:10;2.13;;;1.60;;
16731;SDS011;8484;50.904;9.192;2023-07-30T03:06:38;1.47;;;1.37;;
16731;SDS011;8484;50.904;9.192;2023-07-30T03:09:05;1.57;;;1.40;;
16731;SDS011;8484;50.904;9.192;2023-07-30T03:11:32;1.50;;;1.40;;
16731;SDS011;8484;50.904;9.192;2023-07-30T03:13:59;1.50;;;1.40;;
16731;SDS011;8484;50.904;9.192;2023-07-30T03:16:26;2.37;;;1.47;;
16731;SDS011;8484;50.904;9.192;2023-07-30T03:18:53;2.87;;;1.60;;
16731;SDS011;8484;50.904;9.192;2023-07-30T03:21:20;3.20;;;1.60;;
16731;SDS011;8484;50.904;9.192;2023-07-30T03:23:48;1.97;;;1.33;;
16731;SDS011;8484;50.904;9.192;2023-07-30T03:26:15;1.83;;;1.67;;
16731;SDS011;8484;50.904;9.192;2023-07-30T03:28:42;2.03;;;1.47;;
16731;SDS011;8484;50.904;9.192;2023-07-30T03:31:09;2.00;;;1.50;;
16731;SDS011;8484;50.904;9.192;2023-07-30T03:33:36;1.77;;;1.63;;
16731;SDS011;8484;50.904;9.192;2023-07-30T03:36:04;1.90;;;1.70;;
16731;SDS011;8484;50.904;9.192;2023-07-30T03:38:31;3.43;;;2.00;;
16731;SDS011;8484;50.904;9.192;2023-07-30T03:40:59;4.63;;;1.87;;
16731;SDS011;8484;50.904;9.192;2023-07-30T03:43:26;2.17;;;1.90;;
16731;SDS011;8484;50.904;9.192;2023-07-30T03:45:53;2.10;;;1.90;;
16731;SDS011;8484;50.904;9.192;2023-07-30T03:48:20;2.97;;;2.27;;
16731;SDS011;8484;50.904;9.192;2023-07-30T03:50:47;1.90;;;1.80;;
16731;SDS011;8484;50.904;9.192;2023-07-30T03:53:14;1.67;;;1.57;;
16731;SDS011;8484;50.904;9.192;2023-07-30T03:55:41;2.47;;;1.80;;
16731;SDS011;8484;50.904;9.192;2023-07-30T03:58:09;3.00;;;1.67;;
16731;SDS011;8484;50.904;9.192;2023-07-30T04:00:36;3.07;;;1.87;;
16731;SDS011;8484;50.904;9.192;2023-07-30T04:03:03;1.73;;;1.50;;
16731;SDS011;8484;50.904;9.192;2023-07-30T04:05:35;2.63;;;1.57;;
16731;SDS011;8484;50.904;9.192;2023-07-30T04:08:02;2.27;;;1.60;;
16731;SDS011;8484;50.904;9.192;2023-07-30T04:10:29;3.30;;;1.40;;
16731;SDS011;8484;50.904;9.192;2023-07-30T04:12:56;2.27;;;1.60;;
16731;SDS011;8484;50.904;9.192;2023-07-30T04:15:24;3.07;;;1.60;;
16731;SDS011;8484;50.904;9.192;2023-07-30T04:17:51;2.00;;;1.80;;
16731;SDS011;8484;50.904;9.192;2023-07-30T04:20:18;1.90;;;1.60;;
16731;SDS011;8484;50.904;9.192;2023-07-30T04:22:45;2.83;;;1.80;;
16731;SDS011;8484;50.904;9.192;2023-07-30T04:25:11;2.17;;;1.93;;
16731;SDS011;8484;50.904;9.192;2023-07-30T04:27:38;4.07;;;2.10;;
16731;SDS011;8484;50.904;9.192;2023-07-30T04:30:06;2.10;;;1.90;;
16731;SDS011;8484;50.904;9.192;2023-07-30T04:32:34;2.87;;;1.70;;
16731;SDS011;8484;50.904;9.192;2023-07-30T04:35:01;1.80;;;1.70;;
16731;SDS011;8484;50.904;9.192;2023-07-30T04:37:29;2.30;;;1.80;;
16731;SDS011;8484;50.904;9.192;2023-07-30T04:39:56;2.97;;;1.67;;
16731;SDS011;8484;50.904;9.192;2023-07-30T04:42:23;1.90;;;1.70;;
16731;SDS011;8484;50.904;9.192;2023-07-30T04:44:50;5.17;;;2.03;;
16731;SDS011;8484;50.904;9.192;2023-07-30T04:47:17;2.37;;;1.67;;
16731;SDS011;8484;50.904;9.192;2023-07-30T04:49:45;2.17;;;1.63;;
16731;SDS011;8484;50.904;9.192;2023-07-30T04:52:12;1.50;;;1.40;;
16731;SDS011;8484;50.904;9.192;2023-07-30T04:54:39;2.70;;;1.47;;
16731;SDS011;8484;50.904;9.192;2023-07-30T04:57:05;3.80;;;1.50;;
16731;SDS011;8484;50.904;9.192;2023-07-30T04:59:33;2.27;;;1.60;;
16731;SDS011;8484;50.904;9.192;2023-07-30T05:02:00;1.53;;;1.20;;
16731;SDS011;8484;50.904;9.192;2023-07-30T05:04:29;2.07;;;1.50;;
16731;SDS011;8484;50.904;9.192;2023-07-30T05:06:58;1.63;;;1.50;;
16731;SDS011;8484;50.904;9.192;2023-07-30T05:09:24;2.10;;;1.30;;
16731;SDS011;8484;50.904;9.192;2023-07-30T05:11:57;2.80;;;1.70;;
16731;SDS011;8484;50.904;9.192;2023-07-30T05:14:24;3.53;;;1.63;;
16731;SDS011;8484;50.904;9.192;2023-07-30T05:16:51;3.33;;;1.50;;
16731;SDS011;8484;50.904;9.192;2023-07-30T05:19:21;1.60;;;1.40;;
16731;SDS011;8484;50.904;9.192;2023-07-30T05:21:48;2.67;;;1.60;;
16731;SDS011;8484;50.904;9.192;2023-07-30T05:24:16;4.73;;;1.47;;
16731;SDS011;8484;50.904;9.192;2023-07-30T05:26:43;2.00;;;1.40;;
16731;SDS011;8484;50.904;9.192;2023-07-30T05:29:10;1.40;;;1.30;;
16731;SDS011;8484;50.904;9.192;2023-07-30T05:31:37;1.43;;;1.20;;
16731;SDS011;8484;50.904;9.192;2023-07-30T05:34:04;2.80;;;1.30;;
16731;SDS011;8484;50.904;9.192;2023-07-30T05:36:32;1.20;;;1.10;;
16731;SDS011;8484;50.904;9.192;2023-07-30T05:38:58;1.93;;;1.20;;
16731;SDS011;8484;50.904;9.192;2023-07-30T05:41:27;1.87;;;1.30;;
16731;SDS011;8484;50.904;9.192;2023-07-30T05:43:54;1.23;;;1.10;;
16731;SDS011;8484;50.904;9.192;2023-07-30T05:46:20;2.63;;;1.20;;
16731;SDS011;8484;50.904;9.192;2023-07-30T05:48:47;1.80;;;1.10;;
16731;SDS011;8484;50.904;9.192;2023-07-30T05:51:14;2.40;;;1.10;;
16731;SDS011;8484;50.904;9.192;2023-07-30T05:53:42;2.87;;;1.17;;
16731;SDS011;8484;50.904;9.192;2023-07-30T05:56:09;1.90;;;1.00;;
16731;SDS011;8484;50.904;9.192;2023-07-30T05:58:39;2.67;;;1.20;;
16731;SDS011;8484;50.904;9.192;2023-07-30T06:01:09;2.87;;;1.10;;
16731;SDS011;8484;50.904;9.192;2023-07-30T06:03:36;3.20;;;1.00;;
16731;SDS011;8484;50.904;9.192;2023-07-30T06:06:03;1.20;;;0.90;;
16731;SDS011;8484;50.904;9.192;2023-07-30T06:08:30;2.23;;;0.90;;
16731;SDS011;8484;50.904;9.192;2023-07-30T06:11:00;1.93;;;1.00;;
16731;SDS011;8484;50.904;9.192;2023-07-30T06:13:27;2.27;;;1.10;;
16731;SDS011;8484;50.904;9.192;2023-07-30T06:15:55;1.43;;;1.00;;
16731;SDS011;8484;50.904;9.192;2023-07-30T06:18:22;1.63;;;0.80;;
16731;SDS011;8484;50.904;9.192;2023-07-30T06:20:49;3.17;;;1.00;;
16731;SDS011;8484;50.904;9.192;2023-07-30T06:23:16;1.40;;;0.63;;
16731;SDS011;8484;50.904;9.192;2023-07-30T06:25:43;1.47;;;0.73;;
16731;SDS011;8484;50.904;9.192;2023-07-30T06:28:10;2.37;;;0.80;;
16731;SDS011;8484;50.904;9.192;2023-07-30T06:30:37;0.80;;;0.70;;
16731;SDS011;8484;50.904;9.192;2023-07-30T06:33:06;1.77;;;0.60;;
16731;SDS011;8484;50.904;9.192;2023-07-30T06:35:33;5.40;;;0.80;;
16731;SDS011;8484;50.904;9.192;2023-07-30T06:37:59;1.43;;;0.90;;
16731;SDS011;8484;50.904;9.192;2023-07-30T06:40:26;1.63;;;0.70;;
16731;SDS011;8484;50.904;9.192;2023-07-30T06:42:53;1.30;;;0.67;;
16731;SDS011;8484;50.904;9.192;2023-07-30T06:45:20;1.10;;;0.60;;
16731;SDS011;8484;50.904;9.192;2023-07-30T06:47:47;1.20;;;0.60;;
16731;SDS011;8484;50.904;9.192;2023-07-30T06:50:15;1.10;;;0.70;;
16731;SDS011;8484;50.904;9.192;2023-07-30T06:52:42;1.67;;;0.80;;
16731;SDS011;8484;50.904;9.192;2023-07-30T06:55:09;0.90;;;0.60;;
16731;SDS011;8484;50.904;9.192;2023-07-30T06:57:36;1.70;;;0.87;;
16731;SDS011;8484;50.904;9.192;2023-07-30T07:00:03;1.97;;;0.70;;
16731;SDS011;8484;50.904;9.192;2023-07-30T07:02:36;1.53;;;0.60;;
16731;SDS011;8484;50.904;9.192;2023-07-30T07:05:03;1.00;;;0.60;;
16731;SDS011;8484;50.904;9.192;2023-07-30T07:07:32;1.43;;;0.50;;
16731;SDS011;8484;50.904;9.192;2023-07-30T07:09:59;1.33;;;0.70;;
16731;SDS011;8484;50.904;9.192;2023-07-30T07:12:26;1.70;;;0.60;;
16731;SDS011;8484;50.904;9.192;2023-07-30T07:14:53;1.00;;;0.57;;
16731;SDS011;8484;50.904;9.192;2023-07-30T07:17:23;1.67;;;0.53;;
16731;SDS011;8484;50.904;9.192;2023-07-30T07:19:50;1.93;;;0.83;;
16731;SDS011;8484;50.904;9.192;2023-07-30T07:22:17;1.83;;;1.10;;
16731;SDS011;8484;50.904;9.192;2023-07-30T07:24:45;2.40;;;0.80;;
16731;SDS011;8484;50.904;9.192;2023-07-30T07:27:12;1.30;;;0.60;;
16731;SDS011;8484;50.904;9.192;2023-07-30T07:29:39;2.27;;;0.80;;
16731;SDS011;8484;50.904;9.192;2023-07-30T07:32:06;1.60;;;0.90;;
16731;SDS011;8484;50.904;9.192;2023-07-30T07:34:33;1.63;;;1.00;;
16731;SDS011;8484;50.904;9.192;2023-07-30T07:37:01;0.90;;;0.70;;
16731;SDS011;8484;50.904;9.192;2023-07-30T07:39:28;1.90;;;0.80;;
16731;SDS011;8484;50.904;9.192;2023-07-30T07:41:56;3.80;;;1.07;;
16731;SDS011;8484;50.904;9.192;2023-07-30T07:44:23;3.23;;;0.80;;
16731;SDS011;8484;50.904;9.192;2023-07-30T07:46:50;3.13;;;0.90;;
16731;SDS011;8484;50.904;9.192;2023-07-30T07:49:17;1.67;;;0.70;;
16731;SDS011;8484;50.904;9.192;2023-07-30T07:51:44;2.27;;;0.97;;
16731;SDS011;8484;50.904;9.192;2023-07-30T07:54:10;1.90;;;0.90;;
16731;SDS011;8484;50.904;9.192;2023-07-30T07:56:37;1.77;;;0.67;;
16731;SDS011;8484;50.904;9.192;2023-07-30T07:59:05;2.13;;;0.70;;
16731;SDS011;8484;50.904;9.192;2023-07-30T08:01:32;1.40;;;0.90;;
16731;SDS011;8484;50.904;9.192;2023-07-30T08:03:59;1.30;;;0.70;;
16731;SDS011;8484;50.904;9.192;2023-07-30T08:06:26;2.53;;;0.70;;
16731;SDS011;8484;50.904;9.192;2023-07-30T08:08:53;1.60;;;0.87;;
16731;SDS011;8484;50.904;9.192;2023-07-30T08:11:20;2.07;;;0.90;;
16731;SDS011;8484;50.904;9.192;2023-07-30T08:13:47;2.53;;;0.77;;
16731;SDS011;8484;50.904;9.192;2023-07-30T08:16:15;1.10;;;0.80;;
16731;SDS011;8484;50.904;9.192;2023-07-30T08:18:42;1.70;;;0.80;;
16731;SDS011;8484;50.904;9.192;2023-07-30T08:21:08;1.53;;;0.97;;
16731;SDS011;8484;50.904;9.192;2023-07-30T08:23:35;3.60;;;1.00;;
16731;SDS011;8484;50.904;9.192;2023-07-30T08:26:02;0.97;;;0.70;;
16731;SDS011;8484;50.904;9.192;2023-07-30T08:28:29;1.30;;;0.70;;
16731;SDS011;8484;50.904;9.192;2023-07-30T08:30:59;1.07;;;0.70;;
16731;SDS011;8484;50.904;9.192;2023-07-30T08:33:28;1.37;;;0.90;;
16731;SDS011;8484;50.904;9.192;2023-07-30T08:35:56;1.83;;;0.80;;
16731;SDS011;8484;50.904;9.192;2023-07-30T08:38:25;1.03;;;0.83;;
16731;SDS011;8484;50.904;9.192;2023-07-30T08:40:52;1.10;;;0.80;;
16731;SDS011;8484;50.904;9.192;2023-07-30T08:43:19;2.00;;;1.07;;
16731;SDS011;8484;50.904;9.192;2023-07-30T08:45:46;2.17;;;0.80;;
16731;SDS011;8484;50.904;9.192;2023-07-30T08:48:13;3.23;;;0.90;;
16731;SDS011;8484;50.904;9.192;2023-07-30T08:50:41;2.00;;;0.87;;
16731;SDS011;8484;50.904;9.192;2023-07-30T08:53:09;3.37;;;1.03;;
16731;SDS011;8484;50.904;9.192;2023-07-30T08:55:36;1.33;;;0.90;;
16731;SDS011;8484;50.904;9.192;2023-07-30T08:58:05;2.27;;;0.90;;
16731;SDS011;8484;50.904;9.192;2023-07-30T09:00:34;1.63;;;0.80;;
16731;SDS011;8484;50.904;9.192;2023-07-30T09:03:03;1.90;;;0.80;;
16731;SDS011;8484;50.904;9.192;2023-07-30T09:05:31;3.03;;;1.03;;
16731;SDS011;8484;50.904;9.192;2023-07-30T09:07:59;5.17;;;0.87;;
16731;SDS011;8484;50.904;9.192;2023-07-30T09:10:27;3.13;;;0.80;;
16731;SDS011;8484;50.904;9.192;2023-07-30T09:12:54;1.43;;;0.90;;
16731;SDS011;8484;50.904;9.192;2023-07-30T09:15:32;1.20;;;0.80;;
16731;SDS011;8484;50.904;9.192;2023-07-30T09:18:02;1.53;;;0.80;;
16731;SDS011;8484;50.904;9.192;2023-07-30T09:20:36;1.70;;;0.80;;
16731;SDS011;8484;50.904;9.192;2023-07-30T09:23:05;4.80;;;0.80;;
16731;SDS011;8484;50.904;9.192;2023-07-30T09:25:33;2.37;;;0.80;;
16731;SDS011;8484;50.904;9.192;2023-07-30T09:27:59;2.20;;;0.90;;
16731;SDS011;8484;50.904;9.192;2023-07-30T09:30:26;2.30;;;0.90;;
16731;SDS011;8484;50.904;9.192;2023-07-30T09:32:54;2.70;;;0.90;;
16731;SDS011;8484;50.904;9.192;2023-07-30T09:35:23;2.40;;;1.03;;
16731;SDS011;8484;50.904;9.192;2023-07-30T09:37:57;5.03;;;0.90;;
16731;SDS011;8484;50.904;9.192;2023-07-30T09:40:31;2.70;;;1.00;;
16731;SDS011;8484;50.904;9.192;2023-07-30T09:42:59;2.27;;;0.70;;
16731;SDS011;8484;50.904;9.192;2023-07-30T09:45:28;2.03;;;0.93;;
16731;SDS011;8484;50.904;9.192;2023-07-30T09:47:58;1.00;;;0.70;;
16731;SDS011;8484;50.904;9.192;2023-07-30T09:50:26;2.30;;;1.07;;
16731;SDS011;8484;50.904;9.192;2023-07-30T09:52:53;2.13;;;0.90;;
16731;SDS011;8484;50.904;9.192;2023-07-30T09:55:20;2.13;;;0.90;;
16731;SDS011;8484;50.904;9.192;2023-07-30T09:57:49;2.27;;;1.13;;
16731;SDS011;8484;50.904;9.192;2023-07-30T10:00:16;1.00;;;0.80;;
16731;SDS011;8484;50.904;9.192;2023-07-30T10:02:45;3.20;;;1.10;;
16731;SDS011;8484;50.904;9.192;2023-07-30T10:05:14;2.30;;;0.90;;
16731;SDS011;8484;50.904;9.192;2023-07-30T10:07:42;3.40;;;0.90;;
16731;SDS011;8484;50.904;9.192;2023-07-30T10:10:14;3.60;;;0.90;;
16731;SDS011;8484;50.904;9.192;2023-07-30T10:12:41;1.93;;;0.90;;
16731;SDS011;8484;50.904;9.192;2023-07-30T10:15:11;1.37;;;0.80;;
16731;SDS011;8484;50.904;9.192;2023-07-30T10:17:38;2.67;;;1.00;;
16731;SDS011;8484;50.904;9.192;2023-07-30T10:20:18;2.67;;;0.90;;
16731;SDS011;8484;50.904;9.192;2023-07-30T10:22:46;3.10;;;1.10;;
16731;SDS011;8484;50.904;9.192;2023-07-30T10:25:17;2.67;;;0.70;;
16731;SDS011;8484;50.904;9.192;2023-07-30T10:27:48;2.30;;;0.90;;
16731;SDS011;8484;50.904;9.192;2023-07-30T10:30:18;2.37;;;0.80;;
16731;SDS011;8484;50.904;9.192;2023-07-30T10:33:00;1.50;;;0.60;;
16731;SDS011;8484;50.904;9.192;2023-07-30T10:35:35;1.10;;;0.70;;
16731;SDS011;8484;50.904;9.192;2023-07-30T10:38:11;2.50;;;0.87;;
16731;SDS011;8484;50.904;9.192;2023-07-30T10:40:42;2.07;;;0.87;;
16731;SDS011;8484;50.904;9.192;2023-07-30T10:43:27;1.07;;;0.73;;
16731;SDS011;8484;50.904;9.192;2023-07-30T10:45:56;1.53;;;0.60;;
16731;SDS011;8484;50.904;9.192;2023-07-30T10:48:30;1.67;;;0.70;;
16731;SDS011;8484;50.904;9.192;2023-07-30T10:50:59;2.10;;;0.50;;
16731;SDS011;8484;50.904;9.192;2023-07-30T10:53:27;1.17;;;0.63;;
16731;SDS011;8484;50.904;9.192;2023-07-30T10:55:54;0.90;;;0.50;;
16731;SDS011;8484;50.904;9.192;2023-07-30T10:58:25;1.17;;;0.50;;
16731;SDS011;8484;50.904;9.192;2023-07-30T11:00:52;0.50;;;0.50;;
16731;SDS011;8484;50.904;9.192;2023-07-30T11:03:20;1.40;;;0.70;;
16731;SDS011;8484;50.904;9.192;2023-07-30T11:05:49;0.70;;;0.30;;
16731;SDS011;8484;50.904;9.192;2023-07-30T11:08:16;0.73;;;0.50;;
16731;SDS011;8484;50.904;9.192;2023-07-30T11:10:43;1.37;;;0.50;;
16731;SDS011;8484;50.904;9.192;2023-07-30T11:13:12;1.63;;;0.60;;
16731;SDS011;8484;50.904;9.192;2023-07-30T11:15:42;1.07;;;0.60;;
16731;SDS011;8484;50.904;9.192;2023-07-30T11:18:10;0.50;;;0.50;;
16731;SDS011;8484;50.904;9.192;2023-07-30T11:20:39;0.73;;;0.40;;
16731;SDS011;8484;50.904;9.192;2023-07-30T11:23:19;1.50;;;0.70;;
16731;SDS011;8484;50.904;9.192;2023-07-30T11:25:47;1.30;;;0.50;;
16731;SDS011;8484;50.904;9.192;2023-07-30T11:28:26;0.47;;;0.30;;
16731;SDS011;8484;50.904;9.192;2023-07-30T11:30:55;0.83;;;0.30;;
16731;SDS011;8484;50.904;9.192;2023-07-30T11:33:24;0.50;;;0.40;;
16731;SDS011;8484;50.904;9.192;2023-07-30T11:35:52;0.93;;;0.63;;
16731;SDS011;8484;50.904;9.192;2023-07-30T11:38:20;1.27;;;0.47;;
16731;SDS011;8484;50.904;9.192;2023-07-30T11:40:48;2.13;;;0.40;;
16731;SDS011;8484;50.904;9.192;2023-07-30T11:43:16;1.53;;;0.57;;
16731;SDS011;8484;50.904;9.192;2023-07-30T11:45:45;1.53;;;0.70;;
16731;SDS011;8484;50.904;9.192;2023-07-30T11:48:11;1.53;;;0.53;;
16731;SDS011;8484;50.904;9.192;2023-07-30T11:50:44;1.77;;;0.80;;
16731;SDS011;8484;50.904;9.192;2023-07-30T11:53:13;1.27;;;0.40;;
16731;SDS011;8484;50.904;9.192;2023-07-30T11:55:41;1.37;;;0.60;;
16731;SDS011;8484;50.904;9.192;2023-07-30T11:58:09;1.70;;;0.70;;
16731;SDS011;8484;50.904;9.192;2023-07-30T12:00:37;0.93;;;0.60;;
16731;SDS011;8484;50.904;9.192;2023-07-30T12:03:05;2.10;;;0.50;;
16731;SDS011;8484;50.904;9.192;2023-07-30T12:05:35;0.70;;;0.50;;
16731;SDS011;8484;50.904;9.192;2023-07-30T12:08:04;0.73;;;0.50;;
16731;SDS011;8484;50.904;9.192;2023-07-30T12:10:43;0.90;;;0.50;;
16731;SDS011;8484;50.904;9.192;2023-07-30T12:13:11;1.60;;;0.70;;
16731;SDS011;8484;50.904;9.192;2023-07-30T12:15:39;1.13;;;0.63;;
16731;SDS011;8484;50.904;9.192;2023-07-30T12:18:10;1.47;;;0.60;;
16731;SDS011;8484;50.904;9.192;2023-07-30T12:20:37;0.87;;;0.70;;
16731;SDS011;8484;50.904;9.192;2023-07-30T12:23:04;1.27;;;0.70;;
16731;SDS011;8484;50.904;9.192;2023-07-30T12:25:31;1.20;;;0.67;;
16731;SDS011;8484;50.904;9.192;2023-07-30T12:28:00;4.67;;;0.80;;
16731;SDS011;8484;50.904;9.192;2023-07-30T12:30:27;2.47;;;0.80;;
16731;SDS011;8484;50.904;9.192;2023-07-30T12:32:54;1.33;;;0.60;;
16731;SDS011;8484;50.904;9.192;2023-07-30T12:35:21;1.23;;;0.53;;
16731;SDS011;8484;50.904;9.192;2023-07-30T12:37:48;1.63;;;0.80;;
16731;SDS011;8484;50.904;9.192;2023-07-30T12:40:15;1.30;;;0.80;;
16731;SDS011;8484;50.904;9.192;2023-07-30T12:42:42;2.17;;;0.87;;
16731;SDS011;8484;50.904;9.192;2023-07-30T12:45:11;1.47;;;0.73;;
16731;SDS011;8484;50.904;9.192;2023-07-30T12:47:37;3.63;;;1.33;;
16731;SDS011;8484;50.904;9.192;2023-07-30T12:50:05;1.40;;;0.80;;
16731;SDS011;8484;50.904;9.192;2023-07-30T12:52:32;2.00;;;1.00;;
16731;SDS011;8484;50.904;9.192;2023-07-30T12:55:00;3.00;;;0.87;;
16731;SDS011;8484;50.904;9.192;2023-07-30T12:57:29;1.83;;;0.77;;
16731;SDS011;8484;50.904;9.192;2023-07-30T12:59:56;1.83;;;0.90;;
16731;SDS011;8484;50.904;9.192;2023-07-30T13:02:25;2.07;;;1.00;;
16731;SDS011;8484;50.904;9.192;2023-07-30T13:04:52;2.37;;;0.83;;
16731;SDS011;8484;50.904;9.192;2023-07-30T13:07:19;1.80;;;0.93;;
16731;SDS011;8484;50.904;9.192;2023-07-30T13:09:46;2.63;;;0.80;;
16731;SDS011;8484;50.904;9.192;2023-07-30T13:12:13;3.07;;;0.80;;
16731;SDS011;8484;50.904;9.192;2023-07-30T13:14:39;1.67;;;0.77;;
16731;SDS011;8484;50.904;9.192;2023-07-30T13:17:06;1.70;;;0.70;;
16731;SDS011;8484;50.904;9.192;2023-07-30T13:19:35;3.43;;;0.90;;
16731;SDS011;8484;50.904;9.192;2023-07-30T13:22:01;2.20;;;1.20;;
16731;SDS011;8484;50.904;9.192;2023-07-30T13:24:28;1.80;;;1.00;;
16731;SDS011;8484;50.904;9.192;2023-07-30T13:26:56;1.47;;;0.70;;
16731;SDS011;8484;50.904;9.192;2023-07-30T13:29:23;2.03;;;0.80;;
16731;SDS011;8484;50.904;9.192;2023-07-30T13:31:50;2.27;;;0.87;;
16731;SDS011;8484;50.904;9.192;2023-07-30T13:34:17;1.80;;;0.80;;
16731;SDS011;8484;50.904;9.192;2023-07-30T13:36:45;1.43;;;0.70;;
16731;SDS011;8484;50.904;9.192;2023-07-30T13:39:12;2.50;;;0.73;;
16731;SDS011;8484;50.904;9.192;2023-07-30T13:41:39;2.27;;;0.73;;
16731;SDS011;8484;50.904;9.192;2023-07-30T13:44:06;0.93;;;0.60;;
16731;SDS011;8484;50.904;9.192;2023-07-30T13:46:33;1.03;;;0.57;;
16731;SDS011;8484;50.904;9.192;2023-07-30T13:49:00;0.97;;;0.70;;
16731;SDS011;8484;50.904;9.192;2023-07-30T13:51:27;1.30;;;0.70;;
16731;SDS011;8484;50.904;9.192;2023-07-30T13:53:58;3.70;;;1.07;;
16731;SDS011;8484;50.904;9.192;2023-07-30T13:56:26;2.47;;;0.80;;
16731;SDS011;8484;50.904;9.192;2023-07-30T13:58:53;1.37;;;0.50;;
16731;SDS011;8484;50.904;9.192;2023-07-30T14:01:20;4.50;;;1.27;;
16731;SDS011;8484;50.904;9.192;2023-07-30T14:03:47;2.63;;;0.73;;
16731;SDS011;8484;50.904;9.192;2023-07-30T14:06:14;1.90;;;0.67;;
16731;SDS011;8484;50.904;9.192;2023-07-30T14:08:41;3.10;;;0.60;;
16731;SDS011;8484;50.904;9.192;2023-07-30T14:11:09;2.20;;;0.80;;
16731;SDS011;8484;50.904;9.192;2023-07-30T14:13:36;0.93;;;0.60;;
16731;SDS011;8484;50.904;9.192;2023-07-30T14:16:03;1.67;;;0.70;;
16731;SDS011;8484;50.904;9.192;2023-07-30T14:18:30;4.83;;;0.80;;
16731;SDS011;8484;50.904;9.192;2023-07-30T14:20:57;1.43;;;0.70;;
16731;SDS011;8484;50.904;9.192;2023-07-30T14:23:24;1.67;;;0.57;;
16731;SDS011;8484;50.904;9.192;2023-07-30T14:25:51;3.67;;;0.80;;
16731;SDS011;8484;50.904;9.192;2023-07-30T14:28:20;1.50;;;0.80;;
16731;SDS011;8484;50.904;9.192;2023-07-30T14:30:47;1.33;;;0.50;;
16731;SDS011;8484;50.904;9.192;2023-07-30T14:33:14;1.47;;;0.60;;
16731;SDS011;8484;50.904;9.192;2023-07-30T14:35:41;1.53;;;0.50;;
16731;SDS011;8484;50.904;9.192;2023-07-30T14:38:08;1.40;;;0.70;;
16731;SDS011;8484;50.904;9.192;2023-07-30T14:40:37;2.67;;;0.80;;
16731;SDS011;8484;50.904;9.192;2023-07-30T14:43:05;2.17;;;0.53;;
16731;SDS011;8484;50.904;9.192;2023-07-30T14:45:33;1.90;;;0.83;;
16731;SDS011;8484;50.904;9.192;2023-07-30T14:48:00;2.10;;;0.80;;
16731;SDS011;8484;50.904;9.192;2023-07-30T14:50:27;2.37;;;0.73;;
16731;SDS011;8484;50.904;9.192;2023-07-30T14:52:54;2.67;;;0.70;;
16731;SDS011;8484;50.904;9.192;2023-07-30T14:55:21;1.60;;;0.80;;
16731;SDS011;8484;50.904;9.192;2023-07-30T14:57:48;2.10;;;0.60;;
16731;SDS011;8484;50.904;9.192;2023-07-30T15:00:15;1.90;;;0.80;;
16731;SDS011;8484;50.904;9.192;2023-07-30T15:02:43;6.70;;;0.87;;
16731;SDS011;8484;50.904;9.192;2023-07-30T15:05:10;1.43;;;0.60;;